sensor_id;sensor_type;location;lat;lon;timestamp;temperature;humidity
3300;DHT22;1662;49.310;8.134;2023-03-14T00:01:32;11.10;99.90
3300;DHT22;1662;49.310;8.134;2023-03-14T00:03:58;11.20;99.90
3300;DHT22;1662;49.310;8.134;2023-03-14T00:06:25;11.10;99.90
3300;DHT22;1662;49.310;8.134;2023-03-14T00:08:51;11.20;99.90
3300;DHT22;1662;49.310;8.134;2023-03-14T00:11:19;11.20;99.90
3300;DHT22;1662;49.310;8.134;2023-03-14T00:13:52;11.20;99.90
3300;DHT22;1662;49.310;8.134;2023-03-14T00:16:18;11.10;99.90
3300;DHT22;1662;49.310;8.134;2023-03-14T00:18:44;11.20;99.90
3300;DHT22;1662;49.310;8.134;2023-03-14T00:21:12;11.20;99.90
3300;DHT22;1662;49.310;8.134;2023-03-14T00:23:39;11.20;99.90
3300;DHT22;1662;49.310;8.134;2023-03-14T00:26:08;11.10;99.90
3300;DHT22;1662;49.310;8.134;2023-03-14T00:28:34;11.20;99.90
3300;DHT22;1662;49.310;8.134;2023-03-14T00:31:03;11.20;99.90
3300;DHT22;1662;49.310;8.134;2023-03-14T00:33:29;11.20;99.90
3300;DHT22;1662;49.310;8.134;2023-03-14T00:35:59;11.20;99.90
3300;DHT22;1662;49.310;8.134;2023-03-14T00:38:25;11.10;99.90
3300;DHT22;1662;49.310;8.134;2023-03-14T00:40:52;11.10;99.90
3300;DHT22;1662;49.310;8.134;2023-03-14T00:43:18;11.10;99.90
3300;DHT22;1662;49.310;8.134;2023-03-14T00:45:47;11.20;99.90
3300;DHT22;1662;49.310;8.134;2023-03-14T00:48:13;11.10;99.90
3300;DHT22;1662;49.310;8.134;2023-03-14T00:50:41;11.10;99.90
3300;DHT22;1662;49.310;8.134;2023-03-14T00:53:07;11.10;99.90
3300;DHT22;1662;49.310;8.134;2023-03-14T00:55:36;11.10;99.90
3300;DHT22;1662;49.310;8.134;2023-03-14T00:58:02;11.10;99.90
3300;DHT22;1662;49.310;8.134;2023-03-14T01:00:28;11.00;99.90
3300;DHT22;1662;49.310;8.134;2023-03-14T01:02:53;10.90;99.90
3300;DHT22;1662;49.310;8.134;2023-03-14T01:05:19;10.90;99.90
3300;DHT22;1662;49.310;8.134;2023-03-14T01:07:44;11.00;99.90
3300;DHT22;1662;49.310;8.134;2023-03-14T01:10:11;11.00;99.90
3300;DHT22;1662;49.310;8.134;2023-03-14T01:12:37;11.10;99.90
3300;DHT22;1662;49.310;8.134;2023-03-14T01:15:03;11.10;99.90
3300;DHT22;1662;49.310;8.134;2023-03-14T01:17:29;11.00;99.90
3300;DHT22;1662;49.310;8.134;2023-03-14T01:20:00;11.10;99.90
3300;DHT22;1662;49.310;8.134;2023-03-14T01:22:26;11.00;99.90
3300;DHT22;1662;49.310;8.134;2023-03-14T01:24:51;11.00;99.90
3300;DHT22;1662;49.310;8.134;2023-03-14T01:27:17;11.10;99.90
3300;DHT22;1662;49.310;8.134;2023-03-14T01:29:43;11.10;99.90
3300;DHT22;1662;49.310;8.134;2023-03-14T01:32:08;11.10;99.90
3300;DHT22;1662;49.310;8.134;2023-03-14T01:34:34;11.10;99.90
3300;DHT22;1662;49.310;8.134;2023-03-14T01:37:02;11.00;99.90
3300;DHT22;1662;49.310;8.134;2023-03-14T01:39:28;10.90;99.90
3300;DHT22;1662;49.310;8.134;2023-03-14T01:41:54;11.00;99.90
3300;DHT22;1662;49.310;8.134;2023-03-14T01:44:19;10.90;99.90
3300;DHT22;1662;49.310;8.134;2023-03-14T01:46:45;11.00;99.90
3300;DHT22;1662;49.310;8.134;2023-03-14T01:51:56;10.90;99.90
3300;DHT22;1662;49.310;8.134;2023-03-14T01:54:37;10.90;99.90
3300;DHT22;1662;49.310;8.134;2023-03-14T01:59:37;11.00;99.90
3300;DHT22;1662;49.310;8.134;2023-03-14T02:02:06;11.00;99.90
3300;DHT22;1662;49.310;8.134;2023-03-14T02:04:38;11.00;99.90
3300;DHT22;1662;49.310;8.134;2023-03-14T02:07:19;10.90;99.90
3300;DHT22;1662;49.310;8.134;2023-03-14T02:09:46;10.90;99.90
3300;DHT22;1662;49.310;8.134;2023-03-14T02:12:15;10.80;99.90
3300;DHT22;1662;49.310;8.134;2023-03-14T02:14:41;10.90;99.90
3300;DHT22;1662;49.310;8.134;2023-03-14T02:17:14;10.80;99.90
3300;DHT22;1662;49.310;8.134;2023-03-14T02:22:18;10.80;99.90
3300;DHT22;1662;49.310;8.134;2023-03-14T02:25:31;10.80;99.90
3300;DHT22;1662;49.310;8.134;2023-03-14T02:28:00;10.80;99.90
3300;DHT22;1662;49.310;8.134;2023-03-14T02:30:29;10.70;99.90
3300;DHT22;1662;49.310;8.134;2023-03-14T02:32:58;10.80;99.90
3300;DHT22;1662;49.310;8.134;2023-03-14T02:35:28;10.80;99.90
3300;DHT22;1662;49.310;8.134;2023-03-14T02:38:23;10.80;99.90
3300;DHT22;1662;49.310;8.134;2023-03-14T02:40:50;10.80;99.90
3300;DHT22;1662;49.310;8.134;2023-03-14T02:43:16;10.90;99.90
3300;DHT22;1662;49.310;8.134;2023-03-14T02:45:47;10.90;99.90
3300;DHT22;1662;49.310;8.134;2023-03-14T02:48:17;10.90;99.90
3300;DHT22;1662;49.310;8.134;2023-03-14T02:50:48;10.80;99.90
3300;DHT22;1662;49.310;8.134;2023-03-14T02:53:17;10.70;99.90
3300;DHT22;1662;49.310;8.134;2023-03-14T02:55:47;10.80;99.90
3300;DHT22;1662;49.310;8.134;2023-03-14T02:58:14;10.80;99.90
3300;DHT22;1662;49.310;8.134;2023-03-14T03:00:39;10.90;99.90
3300;DHT22;1662;49.310;8.134;2023-03-14T03:03:05;10.80;99.90
3300;DHT22;1662;49.310;8.134;2023-03-14T03:05:32;10.80;99.90
3300;DHT22;1662;49.310;8.134;2023-03-14T03:07:57;10.90;99.90
3300;DHT22;1662;49.310;8.134;2023-03-14T03:10:23;10.80;99.90
3300;DHT22;1662;49.310;8.134;2023-03-14T03:12:49;10.80;99.90
3300;DHT22;1662;49.310;8.134;2023-03-14T03:15:15;10.80;99.90
3300;DHT22;1662;49.310;8.134;2023-03-14T03:17:41;10.90;99.90
3300;DHT22;1662;49.310;8.134;2023-03-14T03:20:07;10.80;99.90
3300;DHT22;1662;49.310;8.134;2023-03-14T03:22:35;10.90;99.90
3300;DHT22;1662;49.310;8.134;2023-03-14T03:25:01;10.90;99.90
3300;DHT22;1662;49.310;8.134;2023-03-14T03:27:30;10.90;99.90
3300;DHT22;1662;49.310;8.134;2023-03-14T03:29:55;10.90;99.90
3300;DHT22;1662;49.310;8.134;2023-03-14T03:32:21;11.00;99.90
3300;DHT22;1662;49.310;8.134;2023-03-14T03:34:47;10.90;99.90
3300;DHT22;1662;49.310;8.134;2023-03-14T03:37:12;10.80;99.90
3300;DHT22;1662;49.310;8.134;2023-03-14T03:39:38;10.90;99.90
3300;DHT22;1662;49.310;8.134;2023-03-14T03:42:03;10.90;99.90
3300;DHT22;1662;49.310;8.134;2023-03-14T03:44:29;10.90;99.90
3300;DHT22;1662;49.310;8.134;2023-03-14T03:46:55;10.90;99.90
3300;DHT22;1662;49.310;8.134;2023-03-14T03:49:22;10.90;99.90
3300;DHT22;1662;49.310;8.134;2023-03-14T03:51:48;10.90;99.90
3300;DHT22;1662;49.310;8.134;2023-03-14T03:54:16;10.90;99.90
3300;DHT22;1662;49.310;8.134;2023-03-14T03:56:42;10.90;99.90
3300;DHT22;1662;49.310;8.134;2023-03-14T03:59:07;10.90;99.90
3300;DHT22;1662;49.310;8.134;2023-03-14T04:01:33;10.90;99.90
3300;DHT22;1662;49.310;8.134;2023-03-14T04:03:58;10.90;99.90
3300;DHT22;1662;49.310;8.134;2023-03-14T04:06:26;10.90;99.90
3300;DHT22;1662;49.310;8.134;2023-03-14T04:08:53;10.90;99.90
3300;DHT22;1662;49.310;8.134;2023-03-14T04:11:19;10.90;99.90
3300;DHT22;1662;49.310;8.134;2023-03-14T04:13:44;11.00;99.90
3300;DHT22;1662;49.310;8.134;2023-03-14T04:16:21;10.90;99.90
3300;DHT22;1662;49.310;8.134;2023-03-14T04:18:48;10.80;99.90
3300;DHT22;1662;49.310;8.134;2023-03-14T04:21:14;10.80;99.90
3300;DHT22;1662;49.310;8.134;2023-03-14T04:23:40;10.60;99.90
3300;DHT22;1662;49.310;8.134;2023-03-14T04:26:06;10.70;99.90
3300;DHT22;1662;49.310;8.134;2023-03-14T04:28:32;10.60;99.90
3300;DHT22;1662;49.310;8.134;2023-03-14T04:30:57;10.70;99.90
3300;DHT22;1662;49.310;8.134;2023-03-14T04:33:23;10.70;99.90
3300;DHT22;1662;49.310;8.134;2023-03-14T04:35:49;10.60;99.90
3300;DHT22;1662;49.310;8.134;2023-03-14T04:38:18;10.70;99.90
3300;DHT22;1662;49.310;8.134;2023-03-14T04:40:44;10.70;99.90
3300;DHT22;1662;49.310;8.134;2023-03-14T04:43:11;10.60;99.90
3300;DHT22;1662;49.310;8.134;2023-03-14T04:45:37;10.60;99.90
3300;DHT22;1662;49.310;8.134;2023-03-14T04:48:05;10.60;99.90
3300;DHT22;1662;49.310;8.134;2023-03-14T04:50:33;10.60;99.90
3300;DHT22;1662;49.310;8.134;2023-03-14T04:52:59;10.60;99.90
3300;DHT22;1662;49.310;8.134;2023-03-14T04:55:25;10.50;99.90
3300;DHT22;1662;49.310;8.134;2023-03-14T04:57:50;10.50;99.90
3300;DHT22;1662;49.310;8.134;2023-03-14T05:00:16;10.50;99.90
3300;DHT22;1662;49.310;8.134;2023-03-14T05:02:45;10.50;99.90
3300;DHT22;1662;49.310;8.134;2023-03-14T05:05:13;10.40;99.90
3300;DHT22;1662;49.310;8.134;2023-03-14T05:07:39;10.50;99.90
3300;DHT22;1662;49.310;8.134;2023-03-14T05:10:05;10.40;99.90
3300;DHT22;1662;49.310;8.134;2023-03-14T05:12:30;10.50;99.90
3300;DHT22;1662;49.310;8.134;2023-03-14T05:14:56;10.40;99.90
3300;DHT22;1662;49.310;8.134;2023-03-14T05:17:21;10.40;99.90
3300;DHT22;1662;49.310;8.134;2023-03-14T05:19:47;10.40;99.90
3300;DHT22;1662;49.310;8.134;2023-03-14T05:22:13;10.50;99.90
3300;DHT22;1662;49.310;8.134;2023-03-14T05:24:41;10.50;99.90
3300;DHT22;1662;49.310;8.134;2023-03-14T05:27:06;10.60;99.90
3300;DHT22;1662;49.310;8.134;2023-03-14T05:29:32;10.50;99.90
3300;DHT22;1662;49.310;8.134;2023-03-14T05:31:57;10.50;99.90
3300;DHT22;1662;49.310;8.134;2023-03-14T05:34:23;10.40;99.90
3300;DHT22;1662;49.310;8.134;2023-03-14T05:36:51;10.40;99.90
3300;DHT22;1662;49.310;8.134;2023-03-14T05:39:17;10.40;99.90
3300;DHT22;1662;49.310;8.134;2023-03-14T05:41:43;10.40;99.90
3300;DHT22;1662;49.310;8.134;2023-03-14T05:44:08;10.50;99.90
3300;DHT22;1662;49.310;8.134;2023-03-14T05:46:34;10.50;99.90
3300;DHT22;1662;49.310;8.134;2023-03-14T05:49:00;10.40;99.90
3300;DHT22;1662;49.310;8.134;2023-03-14T05:51:25;10.50;99.90
3300;DHT22;1662;49.310;8.134;2023-03-14T05:53:51;10.40;99.90
3300;DHT22;1662;49.310;8.134;2023-03-14T05:56:17;10.50;99.90
3300;DHT22;1662;49.310;8.134;2023-03-14T05:58:42;10.50;99.90
3300;DHT22;1662;49.310;8.134;2023-03-14T06:01:08;10.50;99.90
3300;DHT22;1662;49.310;8.134;2023-03-14T06:03:34;10.70;99.90
3300;DHT22;1662;49.310;8.134;2023-03-14T06:06:00;10.60;99.90
3300;DHT22;1662;49.310;8.134;2023-03-14T06:08:26;10.50;99.90
3300;DHT22;1662;49.310;8.134;2023-03-14T06:10:52;10.60;99.90
3300;DHT22;1662;49.310;8.134;2023-03-14T06:13:18;10.70;99.90
3300;DHT22;1662;49.310;8.134;2023-03-14T06:15:44;10.60;99.90
3300;DHT22;1662;49.310;8.134;2023-03-14T06:18:09;10.60;99.90
3300;DHT22;1662;49.310;8.134;2023-03-14T06:20:36;10.50;99.90
3300;DHT22;1662;49.310;8.134;2023-03-14T06:23:04;10.50;99.90
3300;DHT22;1662;49.310;8.134;2023-03-14T06:25:31;10.60;99.90
3300;DHT22;1662;49.310;8.134;2023-03-14T06:27:56;10.70;99.90
3300;DHT22;1662;49.310;8.134;2023-03-14T06:30:22;10.60;99.90
3300;DHT22;1662;49.310;8.134;2023-03-14T06:32:48;10.80;99.90
3300;DHT22;1662;49.310;8.134;2023-03-14T06:35:13;10.80;99.90
3300;DHT22;1662;49.310;8.134;2023-03-14T06:37:39;10.70;99.90
3300;DHT22;1662;49.310;8.134;2023-03-14T06:40:08;10.60;99.90
3300;DHT22;1662;49.310;8.134;2023-03-14T06:42:36;10.70;99.90
3300;DHT22;1662;49.310;8.134;2023-03-14T06:45:04;10.70;99.90
3300;DHT22;1662;49.310;8.134;2023-03-14T06:47:30;10.70;99.90
3300;DHT22;1662;49.310;8.134;2023-03-14T06:49:56;10.60;99.90
3300;DHT22;1662;49.310;8.134;2023-03-14T06:52:21;10.70;99.90
3300;DHT22;1662;49.310;8.134;2023-03-14T06:54:47;10.70;99.90
3300;DHT22;1662;49.310;8.134;2023-03-14T06:57:13;10.70;99.90
3300;DHT22;1662;49.310;8.134;2023-03-14T06:59:38;10.80;99.90
3300;DHT22;1662;49.310;8.134;2023-03-14T07:02:04;10.90;99.90
3300;DHT22;1662;49.310;8.134;2023-03-14T07:04:29;10.70;99.90
3300;DHT22;1662;49.310;8.134;2023-03-14T07:06:55;10.70;99.90
3300;DHT22;1662;49.310;8.134;2023-03-14T07:09:20;10.60;99.90
3300;DHT22;1662;49.310;8.134;2023-03-14T07:11:46;10.50;99.90
3300;DHT22;1662;49.310;8.134;2023-03-14T07:14:12;10.50;99.90
3300;DHT22;1662;49.310;8.134;2023-03-14T07:16:40;10.40;99.90
3300;DHT22;1662;49.310;8.134;2023-03-14T07:19:05;10.40;99.90
3300;DHT22;1662;49.310;8.134;2023-03-14T07:21:38;10.30;99.90
3300;DHT22;1662;49.310;8.134;2023-03-14T07:24:04;10.40;99.90
3300;DHT22;1662;49.310;8.134;2023-03-14T07:26:30;10.30;99.90
3300;DHT22;1662;49.310;8.134;2023-03-14T07:28:56;10.30;99.90
3300;DHT22;1662;49.310;8.134;2023-03-14T07:31:21;10.30;99.90
3300;DHT22;1662;49.310;8.134;2023-03-14T07:33:47;10.30;99.90
3300;DHT22;1662;49.310;8.134;2023-03-14T07:36:13;10.40;99.90
3300;DHT22;1662;49.310;8.134;2023-03-14T07:38:38;10.40;99.90
3300;DHT22;1662;49.310;8.134;2023-03-14T07:41:08;10.50;99.90
3300;DHT22;1662;49.310;8.134;2023-03-14T07:43:33;10.50;99.90
3300;DHT22;1662;49.310;8.134;2023-03-14T07:45:59;10.50;99.90
3300;DHT22;1662;49.310;8.134;2023-03-14T07:48:25;10.50;99.90
3300;DHT22;1662;49.310;8.134;2023-03-14T07:50:55;10.50;99.90
3300;DHT22;1662;49.310;8.134;2023-03-14T07:53:21;10.60;99.90
3300;DHT22;1662;49.310;8.134;2023-03-14T07:55:47;10.60;99.90
3300;DHT22;1662;49.310;8.134;2023-03-14T07:58:14;10.70;99.90
3300;DHT22;1662;49.310;8.134;2023-03-14T08:00:40;10.70;99.90
3300;DHT22;1662;49.310;8.134;2023-03-14T08:03:05;10.60;99.90
3300;DHT22;1662;49.310;8.134;2023-03-14T08:05:35;10.60;99.90
3300;DHT22;1662;49.310;8.134;2023-03-14T08:08:00;10.60;99.90
3300;DHT22;1662;49.310;8.134;2023-03-14T08:10:29;10.60;99.90
3300;DHT22;1662;49.310;8.134;2023-03-14T08:12:56;10.70;99.90
3300;DHT22;1662;49.310;8.134;2023-03-14T08:15:23;10.70;99.90
3300;DHT22;1662;49.310;8.134;2023-03-14T08:17:49;10.70;99.90
3300;DHT22;1662;49.310;8.134;2023-03-14T08:20:20;10.70;99.90
3300;DHT22;1662;49.310;8.134;2023-03-14T08:22:46;10.70;99.90
3300;DHT22;1662;49.310;8.134;2023-03-14T08:25:12;10.60;99.90
3300;DHT22;1662;49.310;8.134;2023-03-14T08:27:38;10.60;99.90
3300;DHT22;1662;49.310;8.134;2023-03-14T08:30:08;10.60;99.90
3300;DHT22;1662;49.310;8.134;2023-03-14T08:32:35;10.70;99.90
3300;DHT22;1662;49.310;8.134;2023-03-14T08:35:01;10.70;99.90
3300;DHT22;1662;49.310;8.134;2023-03-14T08:37:26;10.70;99.90
3300;DHT22;1662;49.310;8.134;2023-03-14T08:39:52;10.70;99.90
3300;DHT22;1662;49.310;8.134;2023-03-14T08:42:20;10.70;99.90
3300;DHT22;1662;49.310;8.134;2023-03-14T08:44:48;10.70;99.90
3300;DHT22;1662;49.310;8.134;2023-03-14T08:47:14;10.80;99.90
3300;DHT22;1662;49.310;8.134;2023-03-14T08:49:40;10.70;99.90
3300;DHT22;1662;49.310;8.134;2023-03-14T08:52:05;10.70;99.90
3300;DHT22;1662;49.310;8.134;2023-03-14T08:54:31;10.70;99.90
3300;DHT22;1662;49.310;8.134;2023-03-14T08:56:57;10.70;99.90
3300;DHT22;1662;49.310;8.134;2023-03-14T08:59:24;10.80;99.90
3300;DHT22;1662;49.310;8.134;2023-03-14T09:01:50;10.80;99.90
3300;DHT22;1662;49.310;8.134;2023-03-14T09:04:15;10.80;99.90
3300;DHT22;1662;49.310;8.134;2023-03-14T09:06:41;10.80;99.90
3300;DHT22;1662;49.310;8.134;2023-03-14T09:09:07;10.80;99.90
3300;DHT22;1662;49.310;8.134;2023-03-14T09:11:33;10.80;99.90
3300;DHT22;1662;49.310;8.134;2023-03-14T09:13:59;10.70;99.90
3300;DHT22;1662;49.310;8.134;2023-03-14T09:16:24;10.70;99.90
3300;DHT22;1662;49.310;8.134;2023-03-14T09:18:50;10.80;99.90
3300;DHT22;1662;49.310;8.134;2023-03-14T09:21:22;10.70;99.90
3300;DHT22;1662;49.310;8.134;2023-03-14T09:23:48;10.80;99.90
3300;DHT22;1662;49.310;8.134;2023-03-14T09:26:14;10.80;99.90
3300;DHT22;1662;49.310;8.134;2023-03-14T09:28:42;10.80;99.90
3300;DHT22;1662;49.310;8.134;2023-03-14T09:31:09;10.80;99.90
3300;DHT22;1662;49.310;8.134;2023-03-14T09:33:35;10.80;99.90
3300;DHT22;1662;49.310;8.134;2023-03-14T09:36:01;10.80;99.90
3300;DHT22;1662;49.310;8.134;2023-03-14T09:38:27;10.80;99.90
3300;DHT22;1662;49.310;8.134;2023-03-14T09:40:53;10.60;99.90
3300;DHT22;1662;49.310;8.134;2023-03-14T09:43:20;10.70;99.90
3300;DHT22;1662;49.310;8.134;2023-03-14T09:45:48;10.70;99.90
3300;DHT22;1662;49.310;8.134;2023-03-14T09:48:21;10.80;99.90
3300;DHT22;1662;49.310;8.134;2023-03-14T09:50:50;10.80;99.90
3300;DHT22;1662;49.310;8.134;2023-03-14T09:53:40;10.90;99.90
3300;DHT22;1662;49.310;8.134;2023-03-14T09:56:17;10.90;99.90
3300;DHT22;1662;49.310;8.134;2023-03-14T09:58:48;11.00;99.90
3300;DHT22;1662;49.310;8.134;2023-03-14T10:01:18;11.10;99.90
3300;DHT22;1662;49.310;8.134;2023-03-14T10:03:47;11.30;99.90
3300;DHT22;1662;49.310;8.134;2023-03-14T10:06:14;11.40;99.90
3300;DHT22;1662;49.310;8.134;2023-03-14T10:08:41;11.50;99.90
3300;DHT22;1662;49.310;8.134;2023-03-14T10:11:16;11.60;99.90
3300;DHT22;1662;49.310;8.134;2023-03-14T10:14:06;11.40;99.90
3300;DHT22;1662;49.310;8.134;2023-03-14T10:16:35;11.30;99.90
3300;DHT22;1662;49.310;8.134;2023-03-14T10:19:07;11.30;99.90
3300;DHT22;1662;49.310;8.134;2023-03-14T10:21:57;11.40;99.90
3300;DHT22;1662;49.310;8.134;2023-03-14T10:27:03;11.30;99.90
3300;DHT22;1662;49.310;8.134;2023-03-14T10:29:30;11.30;99.90
3300;DHT22;1662;49.310;8.134;2023-03-14T10:32:03;11.20;99.90
3300;DHT22;1662;49.310;8.134;2023-03-14T10:34:32;11.10;99.90
3300;DHT22;1662;49.310;8.134;2023-03-14T10:39:41;11.20;99.90
3300;DHT22;1662;49.310;8.134;2023-03-14T10:42:16;11.10;99.90
3300;DHT22;1662;49.310;8.134;2023-03-14T10:44:45;11.10;99.90
3300;DHT22;1662;49.310;8.134;2023-03-14T10:47:21;11.10;99.90
3300;DHT22;1662;49.310;8.134;2023-03-14T10:49:47;11.00;99.90
3300;DHT22;1662;49.310;8.134;2023-03-14T10:52:26;11.10;99.90
3300;DHT22;1662;49.310;8.134;2023-03-14T10:55:18;11.00;99.90
3300;DHT22;1662;49.310;8.134;2023-03-14T10:57:43;11.10;99.90
3300;DHT22;1662;49.310;8.134;2023-03-14T11:00:20;11.10;99.90
3300;DHT22;1662;49.310;8.134;2023-03-14T11:05:57;11.00;99.90
3300;DHT22;1662;49.310;8.134;2023-03-14T11:08:35;10.90;99.90
3300;DHT22;1662;49.310;8.134;2023-03-14T11:13:48;11.10;99.90
3300;DHT22;1662;49.310;8.134;2023-03-14T11:19:42;11.10;99.90
3300;DHT22;1662;49.310;8.134;2023-03-14T11:22:19;11.00;99.90
3300;DHT22;1662;49.310;8.134;2023-03-14T11:24:59;10.90;99.90
3300;DHT22;1662;49.310;8.134;2023-03-14T11:38:34;10.70;99.90
3300;DHT22;1662;49.310;8.134;2023-03-14T11:41:01;10.60;99.90
3300;DHT22;1662;49.310;8.134;2023-03-14T11:43:35;10.50;99.90
3300;DHT22;1662;49.310;8.134;2023-03-14T11:46:26;10.40;99.90
3300;DHT22;1662;49.310;8.134;2023-03-14T11:51:42;10.20;99.90
3300;DHT22;1662;49.310;8.134;2023-03-14T11:57:19;10.20;99.90
3300;DHT22;1662;49.310;8.134;2023-03-14T12:00:04;10.10;99.90
3300;DHT22;1662;49.310;8.134;2023-03-14T12:02:37;10.00;99.90
3300;DHT22;1662;49.310;8.134;2023-03-14T12:07:53;9.80;99.90
3300;DHT22;1662;49.310;8.134;2023-03-14T12:10:29;9.80;99.90
3300;DHT22;1662;49.310;8.134;2023-03-14T12:12:55;9.60;99.90
3300;DHT22;1662;49.310;8.134;2023-03-14T12:15:23;9.60;99.90
3300;DHT22;1662;49.310;8.134;2023-03-14T12:17:54;9.50;99.90
3300;DHT22;1662;49.310;8.134;2023-03-14T12:20:25;9.40;99.90
3300;DHT22;1662;49.310;8.134;2023-03-14T12:25:26;9.10;99.90
3300;DHT22;1662;49.310;8.134;2023-03-14T12:30:37;9.10;99.90
3300;DHT22;1662;49.310;8.134;2023-03-14T12:41:02;9.80;99.90
3300;DHT22;1662;49.310;8.134;2023-03-14T12:46:27;9.90;99.90
3300;DHT22;1662;49.310;8.134;2023-03-14T12:51:39;10.00;99.90
3300;DHT22;1662;49.310;8.134;2023-03-14T13:04:43;10.20;99.90
3300;DHT22;1662;49.310;8.134;2023-03-14T13:12:35;10.00;99.90
3300;DHT22;1662;49.310;8.134;2023-03-14T13:15:14;9.90;99.90
3300;DHT22;1662;49.310;8.134;2023-03-14T13:17:42;9.90;99.90
3300;DHT22;1662;49.310;8.134;2023-03-14T13:20:36;10.00;99.90
3300;DHT22;1662;49.310;8.134;2023-03-14T13:23:03;10.10;99.90
3300;DHT22;1662;49.310;8.134;2023-03-14T13:25:33;10.20;99.90
3300;DHT22;1662;49.310;8.134;2023-03-14T13:28:01;10.50;99.90
3300;DHT22;1662;49.310;8.134;2023-03-14T13:30:29;10.70;99.90
3300;DHT22;1662;49.310;8.134;2023-03-14T13:33:04;10.90;99.90
3300;DHT22;1662;49.310;8.134;2023-03-14T13:35:42;10.70;99.90
3300;DHT22;1662;49.310;8.134;2023-03-14T13:38:24;10.60;99.90
3300;DHT22;1662;49.310;8.134;2023-03-14T13:40:51;10.60;99.90
3300;DHT22;1662;49.310;8.134;2023-03-14T13:43:29;10.50;99.90
3300;DHT22;1662;49.310;8.134;2023-03-14T13:48:47;10.60;99.90
3300;DHT22;1662;49.310;8.134;2023-03-14T13:51:15;11.10;99.90
3300;DHT22;1662;49.310;8.134;2023-03-14T13:53:53;11.50;99.90
3300;DHT22;1662;49.310;8.134;2023-03-14T13:56:24;12.10;99.90
3300;DHT22;1662;49.310;8.134;2023-03-14T13:58:54;12.50;99.90
3300;DHT22;1662;49.310;8.134;2023-03-14T14:01:31;12.80;99.90
3300;DHT22;1662;49.310;8.134;2023-03-14T14:04:05;13.10;99.90
3300;DHT22;1662;49.310;8.134;2023-03-14T14:06:38;12.90;99.90
3300;DHT22;1662;49.310;8.134;2023-03-14T14:09:11;12.90;99.90
3300;DHT22;1662;49.310;8.134;2023-03-14T14:11:58;13.00;99.90
3300;DHT22;1662;49.310;8.134;2023-03-14T14:14:32;12.80;99.90
3300;DHT22;1662;49.310;8.134;2023-03-14T14:16:59;12.90;99.90
3300;DHT22;1662;49.310;8.134;2023-03-14T14:19:28;12.90;99.90
3300;DHT22;1662;49.310;8.134;2023-03-14T14:21:59;13.20;99.90
3300;DHT22;1662;49.310;8.134;2023-03-14T14:24:29;13.30;99.90
3300;DHT22;1662;49.310;8.134;2023-03-14T14:27:36;13.20;99.90
3300;DHT22;1662;49.310;8.134;2023-03-14T14:30:06;13.10;99.90
3300;DHT22;1662;49.310;8.134;2023-03-14T14:32:37;12.90;99.90
3300;DHT22;1662;49.310;8.134;2023-03-14T14:35:09;13.10;99.90
3300;DHT22;1662;49.310;8.134;2023-03-14T14:37:42;12.90;99.90
3300;DHT22;1662;49.310;8.134;2023-03-14T14:40:22;13.00;99.90
3300;DHT22;1662;49.310;8.134;2023-03-14T14:42:49;13.20;99.90
3300;DHT22;1662;49.310;8.134;2023-03-14T14:45:24;13.50;99.90
3300;DHT22;1662;49.310;8.134;2023-03-14T14:47:55;13.70;98.70
3300;DHT22;1662;49.310;8.134;2023-03-14T14:50:49;13.70;98.90
3300;DHT22;1662;49.310;8.134;2023-03-14T14:53:37;13.70;98.80
3300;DHT22;1662;49.310;8.134;2023-03-14T14:58:47;14.30;94.60
3300;DHT22;1662;49.310;8.134;2023-03-14T15:01:25;14.00;94.60
3300;DHT22;1662;49.310;8.134;2023-03-14T15:03:55;13.80;95.50
3300;DHT22;1662;49.310;8.134;2023-03-14T15:06:22;13.80;95.50
3300;DHT22;1662;49.310;8.134;2023-03-14T15:08:49;14.10;93.70
3300;DHT22;1662;49.310;8.134;2023-03-14T15:11:24;14.10;93.80
3300;DHT22;1662;49.310;8.134;2023-03-14T15:13:53;14.00;94.50
3300;DHT22;1662;49.310;8.134;2023-03-14T15:16:22;14.40;94.00
3300;DHT22;1662;49.310;8.134;2023-03-14T15:18:53;14.50;93.90
3300;DHT22;1662;49.310;8.134;2023-03-14T15:21:20;14.30;92.50
3300;DHT22;1662;49.310;8.134;2023-03-14T15:23:46;14.40;92.30
3300;DHT22;1662;49.310;8.134;2023-03-14T15:26:18;14.20;93.30
3300;DHT22;1662;49.310;8.134;2023-03-14T15:28:44;14.20;93.20
3300;DHT22;1662;49.310;8.134;2023-03-14T15:31:12;14.10;93.00
3300;DHT22;1662;49.310;8.134;2023-03-14T15:33:41;14.20;94.10
3300;DHT22;1662;49.310;8.134;2023-03-14T15:36:36;14.00;94.20
3300;DHT22;1662;49.310;8.134;2023-03-14T15:39:04;13.80;94.50
3300;DHT22;1662;49.310;8.134;2023-03-14T15:41:29;14.20;94.40
3300;DHT22;1662;49.310;8.134;2023-03-14T15:43:55;14.40;93.70
3300;DHT22;1662;49.310;8.134;2023-03-14T15:46:21;14.40;93.70
3300;DHT22;1662;49.310;8.134;2023-03-14T15:48:48;14.30;93.70
3300;DHT22;1662;49.310;8.134;2023-03-14T15:51:14;14.20;94.00
3300;DHT22;1662;49.310;8.134;2023-03-14T15:53:40;14.20;95.00
3300;DHT22;1662;49.310;8.134;2023-03-14T15:56:11;13.90;95.50
3300;DHT22;1662;49.310;8.134;2023-03-14T15:58:38;13.70;96.30
3300;DHT22;1662;49.310;8.134;2023-03-14T16:01:09;13.50;96.90
3300;DHT22;1662;49.310;8.134;2023-03-14T16:03:35;13.30;96.80
3300;DHT22;1662;49.310;8.134;2023-03-14T16:06:01;12.90;97.50
3300;DHT22;1662;49.310;8.134;2023-03-14T16:08:29;12.70;97.70
3300;DHT22;1662;49.310;8.134;2023-03-14T16:10:57;12.40;98.40
3300;DHT22;1662;49.310;8.134;2023-03-14T16:13:23;12.40;98.60
3300;DHT22;1662;49.310;8.134;2023-03-14T16:16:08;12.30;99.20
3300;DHT22;1662;49.310;8.134;2023-03-14T16:18:36;12.20;98.20
3300;DHT22;1662;49.310;8.134;2023-03-14T16:21:05;12.00;99.90
3300;DHT22;1662;49.310;8.134;2023-03-14T16:23:31;11.80;99.90
3300;DHT22;1662;49.310;8.134;2023-03-14T16:25:57;11.70;99.90
3300;DHT22;1662;49.310;8.134;2023-03-14T16:28:25;11.70;99.90
3300;DHT22;1662;49.310;8.134;2023-03-14T16:30:51;11.70;99.90
3300;DHT22;1662;49.310;8.134;2023-03-14T16:33:19;11.60;99.90
3300;DHT22;1662;49.310;8.134;2023-03-14T16:35:55;11.50;99.90
3300;DHT22;1662;49.310;8.134;2023-03-14T16:38:22;11.20;99.90
3300;DHT22;1662;49.310;8.134;2023-03-14T16:40:59;11.00;99.90
3300;DHT22;1662;49.310;8.134;2023-03-14T16:43:25;11.00;99.90
3300;DHT22;1662;49.310;8.134;2023-03-14T16:45:51;11.10;99.90
3300;DHT22;1662;49.310;8.134;2023-03-14T16:48:17;11.10;99.90
3300;DHT22;1662;49.310;8.134;2023-03-14T16:50:42;11.00;99.90
3300;DHT22;1662;49.310;8.134;2023-03-14T16:53:08;11.00;99.90
3300;DHT22;1662;49.310;8.134;2023-03-14T16:55:34;10.70;99.90
3300;DHT22;1662;49.310;8.134;2023-03-14T16:57:59;10.70;99.90
3300;DHT22;1662;49.310;8.134;2023-03-14T17:00:25;10.60;99.90
3300;DHT22;1662;49.310;8.134;2023-03-14T17:02:51;10.40;99.90
3300;DHT22;1662;49.310;8.134;2023-03-14T17:05:16;10.40;99.90
3300;DHT22;1662;49.310;8.134;2023-03-14T17:07:42;10.30;99.90
3300;DHT22;1662;49.310;8.134;2023-03-14T17:10:08;10.40;99.90
3300;DHT22;1662;49.310;8.134;2023-03-14T17:12:35;10.20;99.90
3300;DHT22;1662;49.310;8.134;2023-03-14T17:15:01;10.10;99.90
3300;DHT22;1662;49.310;8.134;2023-03-14T17:17:26;10.10;99.90
3300;DHT22;1662;49.310;8.134;2023-03-14T17:19:52;10.00;99.90
3300;DHT22;1662;49.310;8.134;2023-03-14T17:22:18;9.80;99.90
3300;DHT22;1662;49.310;8.134;2023-03-14T17:24:43;9.70;99.90
3300;DHT22;1662;49.310;8.134;2023-03-14T17:27:09;9.80;99.90
3300;DHT22;1662;49.310;8.134;2023-03-14T17:29:35;9.80;99.90
3300;DHT22;1662;49.310;8.134;2023-03-14T17:32:00;9.70;99.90
3300;DHT22;1662;49.310;8.134;2023-03-14T17:34:28;9.70;99.90